Kirkwall, United Kingdom
Current Conditions -  °F | °C
As of 11:20 AM on Monday 22 Dec 2014 (Local Time) from EGPA Reporting Station
Scattered Clouds Scattered Clouds  
Wind Chill: 33°   Ceiling: Unl
Heat Index: 43°   Visibility: 6mi
Dew Point: 37°   Wind: 25mph
Humidity: 81%   Direction: 260°W
Pressure: 29.35"   Gusts: NA
Location:  58.98°N, 2.96°W
Report Text: EGPA 221120Z 26022KT 9999 FEW020 SCT026CB 06/03 Q0994
Loading
Personal Weather Stations






























Interactive Weather Map New forecast layout! Learn more

10-Day Weather Forecast

Advertisements
Track Severe Weather on mobile